Wetterdaten: aktuell Sonntag, 18.11.2018 11:30
Datum Zeit Temp. A. Luft Gew. Boden Gew. Boden A. Feuchte A. Luftdruck Regen Wind Richtung Richtung Sonnenschein ET UV Solar Taupunkt Windchill Windben Empfang
18.11.2018 11:30 3.3 C 9.4 C 0.0 C 0.0 C 75 % 1025.7 hPa 0.0 l/m 11.9 km/h (2 Bft) O-NO 65 0 min 0.025 mm 0.0 UV-I 47 W/m -0.7 C -1.1 C 20.9 km/h (4 Bft) 97.44 %
18.11.2018 10:30 2.2 C 8.3 C 0.0 C 0.0 C 78 % 1026.5 hPa 0.0 l/m 9.5 km/h (2 Bft) O-NO 62 0 min 0.025 mm 0.0 UV-I 42 W/m -1.2 C -0.6 C 16.1 km/h (3 Bft) 100.00 %
18.11.2018 09:30 0.9 C 3.9 C 0.0 C 0.0 C 85 % 1026.6 hPa 0.0 l/m 7.6 km/h (2 Bft) O 83 0 min 0.001 mm 0.0 UV-I 37 W/m -1.3 C -0.3 C 12.9 km/h (3 Bft) 98.33 %
18.11.2018 08:30 -0.3 C -1.7 C 0.0 C 0.0 C 87 % 1026.9 hPa 0.0 l/m 5.2 km/h (1 Bft) O-NO 71 0 min 0.000 mm 0.0 UV-I 26 W/m -2.2 C -0.3 C 9.7 km/h (2 Bft) 100.00 %
18.11.2018 07:30 -0.5 C -1.7 C 0.0 C 0.0 C 87 % 1026.9 hPa 0.0 l/m 2.8 km/h (1 Bft) O-NO 78 0 min 0.000 mm 0.0 UV-I 1 W/m -2.4 C -0.5 C 6.4 km/h (2 Bft) 100.00 %
18.11.2018 06:30 -0.5 C -1.7 C 0.0 C 0.0 C 88 % 1026.8 hPa 0.0 l/m 3.4 km/h (1 Bft) O-NO 63 0 min 0.000 mm 0.0 UV-I 0 W/m -2.2 C -0.5 C 6.4 km/h (2 Bft) 100.00 %
18.11.2018 05:30 -0.3 C -1.1 C 0.0 C 0.0 C 87 % 1027.1 hPa 0.0 l/m 4.9 km/h (1 Bft) O-NO 63 0 min 0.000 mm 0.0 UV-I 0 W/m -2.2 C -0.3 C 9.7 km/h (2 Bft) 96.58 %
18.11.2018 04:30 0.1 C -1.1 C 0.0 C 0.0 C 86 % 1027.5 hPa 0.0 l/m 5.5 km/h (1 Bft) O-NO 65 0 min 0.000 mm 0.0 UV-I 0 W/m -2.0 C 0.1 C 11.3 km/h (2 Bft) 96.58 %
18.11.2018 03:30 0.2 C -1.1 C 0.0 C 0.0 C 85 % 1027.9 hPa 0.0 l/m 7.0 km/h (2 Bft) NO 46 0 min 0.025 mm 0.0 UV-I 0 W/m -2.0 C -0.4 C 12.9 km/h (3 Bft) 97.44 %
18.11.2018 02:30 0.5 C -0.6 C 0.0 C 0.0 C 83 % 1028.4 hPa 0.0 l/m 5.7 km/h (1 Bft) O-NO 65 0 min 0.026 mm 0.0 UV-I 0 W/m -2.0 C 0.5 C 11.3 km/h (2 Bft) 99.15 %
18.11.2018 01:30 1.0 C 0.0 C 0.0 C 0.0 C 81 % 1028.6 hPa 0.0 l/m 7.8 km/h (2 Bft) O-NO 63 0 min 0.025 mm 0.0 UV-I 0 W/m -1.9 C -0.4 C 19.3 km/h (3 Bft) 100.00 %
18.11.2018 00:30 1.1 C 0.0 C 0.0 C 0.0 C 81 % 1028.9 hPa 0.0 l/m 8.4 km/h (2 Bft) O-NO 66 0 min 0.000 mm 0.0 UV-I 0 W/m -1.8 C -0.9 C 17.7 km/h (3 Bft) 100.00 %
17.11.2018 23:30 1.3 C 0.0 C 0.0 C 0.0 C 80 % 1029.2 hPa 0.0 l/m 9.9 km/h (2 Bft) O 80 0 min 0.026 mm 0.0 UV-I 0 W/m -1.8 C -1.9 C 20.9 km/h (4 Bft) 100.00 %
17.11.2018 22:30 1.4 C 0.6 C 0.0 C 0.0 C 80 % 1029.3 hPa 0.0 l/m 9.1 km/h (2 Bft) O-NO 61 0 min 0.025 mm 0.0 UV-I 0 W/m -1.7 C -1.2 C 17.7 km/h (3 Bft) 99.15 %
17.11.2018 21:30 2.0 C 1.1 C 0.0 C 0.0 C 77 % 1029.1 hPa 0.0 l/m 8.1 km/h (2 Bft) NO 51 0 min 0.025 mm 0.0 UV-I 0 W/m -1.6 C 0.4 C 16.1 km/h (3 Bft) 99.15 %
17.11.2018 20:30 2.2 C 1.1 C 0.0 C 0.0 C 78 % 1029.4 hPa 0.0 l/m 9.7 km/h (2 Bft) NO 50 0 min 0.001 mm 0.0 UV-I 0 W/m -1.2 C -0.8 C 19.3 km/h (3 Bft) 98.29 %
17.11.2018 19:30 2.7 C 2.2 C 0.0 C 0.0 C 79 % 1029.7 hPa 0.0 l/m 9.7 km/h (2 Bft) O-NO 72 0 min 0.025 mm 0.0 UV-I 0 W/m -0.6 C -0.2 C 17.7 km/h (3 Bft) 97.44 %
17.11.2018 18:30 3.5 C 3.3 C 0.0 C 0.0 C 78 % 1029.9 hPa 0.0 l/m 9.2 km/h (2 Bft) O-NO 69 0 min 0.026 mm 0.0 UV-I 0 W/m 0.0 C 1.0 C 17.7 km/h (3 Bft) 94.87 %
17.11.2018 17:30 4.9 C 5.0 C 0.0 C 0.0 C 72 % 1029.5 hPa 0.0 l/m 9.0 km/h (2 Bft) NO 50 0 min 0.050 mm 0.0 UV-I 0 W/m 0.3 C 2.7 C 19.3 km/h (3 Bft) 96.40 %
17.11.2018 16:30 6.6 C 8.9 C 0.0 C 0.0 C 65 % 1029.0 hPa 0.0 l/m 11.3 km/h (2 Bft) O 79 0 min 0.077 mm 0.0 UV-I 10 W/m 0.5 C 3.0 C 20.9 km/h (4 Bft) 96.30 %
17.11.2018 15:30 7.4 C 12.2 C 0.0 C 0.0 C 68 % 1028.6 hPa 0.0 l/m 11.0 km/h (2 Bft) O-NO 66 35 min 0.152 mm 0.0 UV-I 99 W/m 1.9 C 4.1 C 22.5 km/h (4 Bft) 99.10 %
17.11.2018 14:30 8.4 C 8.9 C 0.0 C 0.0 C 63 % 1028.7 hPa 0.0 l/m 13.4 km/h (3 Bft) O-NO 69 60 min 0.178 mm 0.5 UV-I 241 W/m 1.8 C 3.9 C 25.7 km/h (4 Bft) 97.46 %
17.11.2018 13:30 8.3 C 10.0 C 0.0 C 0.0 C 61 % 1028.9 hPa 0.0 l/m 13.0 km/h (3 Bft) O 92 60 min 0.178 mm 0.8 UV-I 322 W/m 1.2 C 4.0 C 24.1 km/h (4 Bft) 97.44 %
17.11.2018 12:30 7.2 C 11.7 C 0.0 C 0.0 C 72 % 1029.2 hPa 0.0 l/m 12.4 km/h (3 Bft) O-NO 76 30 min 0.076 mm 1.0 UV-I 357 W/m 2.5 C 3.1 C 22.5 km/h (4 Bft) 100.00 %
17.11.2018 12:00 6.4 C 11.1 C 0.0 C 0.0 C 75 % 1029.4 hPa 0.0 l/m 11.7 km/h (2 Bft) O 79 0 min 0.000 mm 1.0 UV-I 356 W/m 2.3 C 2.5 C 20.9 km/h (4 Bft) 96.58 %
_ Min-Zeit 06:35 05:50 12:00 12:00 13:30 11:25 - 07:30 - - - - - - 07:35 23:25 06:25 11:00
Minimum _ -0.6 C -1.7 C 0.0 C 0.0 C 61 % 1025.7 hPa - 2.8 km/h (1 Bft) - - - - - - -2.5 C -3.0 C 6.4 km/h (2 Bft) 92.50 %
_ Max-Zeit 14:00 15:35 12:00 12:00 05:40 18:10 12:00 14:15 - - 12:00 13:05 12:00 12:05 12:25 13:10 13:25 12:30
Maximum _ 8.6 C 12.8 C 0.0 C 0.0 C 88 % 1029.9 hPa 0.0 l/m 16.5 km/h
NO (3 Bft)
- - 5 min 0.178 mm 1.0 UV-I 357 W/m 2.7 C 5.6 C 32.2 km/h
O-NO (5 Bft)
100.00 %
Durchschnitt _ 2.9 C 3.7 C 0.0 C 0.0 C 78 % 1028.4 hPa #0.0 l/m 8.9 km/h (2 Bft) O-NO - #0 min. #0.152 mm 0.0 UV-I 33 W/m -0.6 C 0.7 C 17.6 km/h (3 Bft) 98.43 %